Elkins-Randolph Co-Jennings Randolph Field
KEKN : now visible

Airfield :











YOU CAN JOIN US ON...

 
LOGIN :

Register | Disclaimer

   EN    FR    IT 

 









Legend :    VFR   Marginal VFR   IFR   Intensive IFR   Very Intensive IFR
Visi :
Ceiling :
>= 8 km
>= 3000ft
5 to 8 km
1000 to 3000 ft
1500m to 5 km
500 to 1000 ft
800 to 1500m
200 to 500 ft
< 800m
< 200 ft
Symbols :   Thunderstorms  Fog  Heavy snow  Heavy precipitations  Wind > 20 kt






- Airport Elevation : 1987 ft


KEKN - Elkins-Randolph Co-Jennings Randolph Field

CURRENT METAR :
  • 291851Z AUTO 24007G15KT 6SM -RA BKN022 OVC030 08/05 A3010 RMK AO2 SLP212 P0005 T00830050

EXPIRED METARs :
  • 291836Z AUTO VRB04KT 6SM -RA BR BKN021 OVC028 08/06 A3011 RMK AO2 P0004 T00780056
  • 291751Z AUTO 15005KT 5SM -RA BR BKN024 OVC030 07/05 A3011 RMK AO2 SLP214 P0007 60019 T00720050 10072 21006 58027
  • 291651Z AUTO 14005KT 8SM -RA BKN025 BKN029 OVC050 06/04 A3014 RMK AO2 SLP228 P0007 T00610039
  • 291611Z AUTO 15007KT 6SM -RA BR BKN023 OVC036 06/03 A3017 RMK AO2 P0003 T00560033

TAF KEKN
Valid from the 29 at 18:00 until the 30 at 18:00 UTC


291738Z 2918/3018 22010KT 6SM -SHRA BR SCT015 BKN025 OVC030
TEMPO 2919/2921 4SM -SHRA BR SCT008 BKN012
FM292100 24010KT 3SM BR OVC007
TEMPO 2921/2923 2SM -SHRA BR OVC005
FM292300 24007KT 1 1/2SM BR VCSH OVC005
TEMPO 3002/3006 1SM BR OVC004
FM300600 00000KT 1SM BR OVC004
FM301300 VRB03KT 2SM BR BKN004
FM301500 24006KT 6SM -SHRA BR BKN007
KZDC FIR / North America



MET'MAP, your aeronautical weather chart ! - Copyright ORBIFLY December 2007 - Disclaimer

ORBIFLY MET'MAP TEAM :

Programming & Development : Alexandra Zaïnal
Original concept : Baudouin d'Aumeries
Technical & hardware support : Manuel Goepfert
Assistance : Marc-Olivier Méhu




SOURCES & CREDITS :

   NOAA       Earth
Advisory